createdAt,value
2018-07-13T00:00:01.152Z,0.00
2018-07-13T00:01:01.099Z,0.00
2018-07-13T00:02:01.198Z,0.00
2018-07-13T00:03:01.106Z,0.00
2018-07-13T00:04:01.122Z,0.00
2018-07-13T00:05:01.571Z,0.00
2018-07-13T00:06:01.104Z,0.00
2018-07-13T00:07:01.103Z,0.00
2018-07-13T00:08:01.138Z,0.00
2018-07-13T00:09:00.948Z,0.00
2018-07-13T00:10:00.978Z,0.00
2018-07-13T00:11:01.025Z,0.00
2018-07-13T00:12:00.852Z,0.00
2018-07-13T00:13:00.927Z,0.00
2018-07-13T00:14:00.739Z,0.00
2018-07-13T00:15:00.768Z,0.00
2018-07-13T00:16:00.697Z,0.00
2018-07-13T00:17:00.661Z,0.00
2018-07-13T00:18:00.791Z,0.00
2018-07-13T00:19:14.640Z,0.00
2018-07-13T00:21:03.245Z,0.00
2018-07-13T00:22:02.253Z,0.00
2018-07-13T00:24:11.583Z,0.00
2018-07-13T00:25:11.911Z,0.00
2018-07-13T00:27:16.018Z,0.00
2018-07-13T00:28:17.003Z,0.00
2018-07-13T00:30:20.750Z,0.00
2018-07-13T00:31:20.247Z,0.00
2018-07-13T00:33:25.055Z,0.00
2018-07-13T00:34:24.794Z,0.00
2018-07-13T00:36:36.455Z,0.00
2018-07-13T00:37:36.233Z,0.00
2018-07-13T00:39:30.875Z,0.00
2018-07-13T00:40:32.134Z,0.00
2018-07-13T00:41:31.292Z,0.00
2018-07-13T00:42:31.074Z,0.00
2018-07-13T00:43:31.684Z,0.00
2018-07-13T00:44:30.689Z,0.00
2018-07-13T00:45:31.229Z,0.00
2018-07-13T00:46:30.644Z,0.00
2018-07-13T00:47:31.085Z,0.00
2018-07-13T00:48:29.965Z,0.00
2018-07-13T00:49:31.205Z,0.00
2018-07-13T00:50:30.415Z,0.00
2018-07-13T00:51:30.996Z,0.00
2018-07-13T00:52:30.722Z,0.00
2018-07-13T00:53:30.421Z,0.00
2018-07-13T00:54:30.055Z,0.00
2018-07-13T00:55:29.451Z,0.00
2018-07-13T00:56:29.454Z,0.00
2018-07-13T00:57:29.462Z,0.00
2018-07-13T00:58:29.309Z,0.00
2018-07-13T00:59:29.325Z,0.00
2018-07-13T01:00:29.253Z,0.00
2018-07-13T01:01:29.372Z,0.00
2018-07-13T01:02:29.234Z,0.00
2018-07-13T01:03:29.174Z,0.00
2018-07-13T01:04:29.242Z,0.00
2018-07-13T01:05:29.235Z,0.00
2018-07-13T01:06:29.167Z,0.00
2018-07-13T01:07:29.210Z,0.00
2018-07-13T01:08:29.096Z,0.00
2018-07-13T01:09:29.092Z,0.00
2018-07-13T01:10:29.117Z,0.00
2018-07-13T01:11:29.035Z,0.00
2018-07-13T01:13:00.195Z,0.00
2018-07-13T01:14:35.662Z,0.00
2018-07-13T01:15:35.284Z,0.00
2018-07-13T01:17:39.024Z,0.00
2018-07-13T01:18:37.393Z,0.00
2018-07-13T01:20:41.891Z,0.00
2018-07-13T01:21:41.644Z,0.00
2018-07-13T01:23:41.388Z,0.00
2018-07-13T01:24:41.898Z,0.00
2018-07-13T01:26:43.460Z,0.00
2018-07-13T01:27:42.659Z,0.00
2018-07-13T01:29:53.663Z,0.00
2018-07-13T01:30:54.124Z,0.00
2018-07-13T01:31:53.588Z,0.00
2018-07-13T01:33:10.550Z,0.00
2018-07-13T01:34:47.327Z,0.00
2018-07-13T01:35:48.286Z,0.00
2018-07-13T01:37:46.078Z,0.00
2018-07-13T01:40:40.526Z,0.00
2018-07-13T01:41:40.055Z,0.00
2018-07-13T01:42:40.989Z,0.00
2018-07-13T01:43:39.910Z,0.00
2018-07-13T01:44:40.815Z,0.00
2018-07-13T01:45:40.392Z,0.00
2018-07-13T01:46:39.797Z,0.00
2018-07-13T01:47:39.293Z,0.00
2018-07-13T01:48:39.250Z,0.00
2018-07-13T01:49:39.811Z,0.00
2018-07-13T01:50:40.747Z,0.00
2018-07-13T01:51:39.690Z,0.00
2018-07-13T01:52:40.147Z,0.00
2018-07-13T01:53:40.175Z,0.00
2018-07-13T01:54:40.317Z,0.00
2018-07-13T01:55:39.105Z,0.00
2018-07-13T01:56:38.995Z,0.00
2018-07-13T01:57:39.527Z,0.00
2018-07-13T01:58:39.819Z,0.00
2018-07-13T01:59:40.328Z,0.00
2018-07-13T02:00:39.498Z,0.00
2018-07-13T02:01:39.812Z,0.00
2018-07-13T02:02:40.258Z,0.00
2018-07-13T02:03:39.371Z,0.00
2018-07-13T02:04:40.323Z,0.00
2018-07-13T02:05:38.748Z,0.00
2018-07-13T02:06:38.334Z,0.00
2018-07-13T02:07:59.810Z,0.00
2018-07-13T02:09:35.864Z,0.00
2018-07-13T02:10:35.749Z,0.00
2018-07-13T02:12:37.526Z,0.00
2018-07-13T02:13:36.942Z,0.00
2018-07-13T02:15:38.491Z,0.00
2018-07-13T02:16:39.372Z,0.00
2018-07-13T02:18:45.701Z,0.00
2018-07-13T02:21:50.269Z,0.00
2018-07-13T02:22:50.732Z,0.00
2018-07-13T02:24:53.686Z,0.00
2018-07-13T02:25:52.536Z,0.00
2018-07-13T02:26:52.531Z,0.00
2018-07-13T02:27:52.421Z,0.00
2018-07-13T02:28:52.882Z,0.00
2018-07-13T02:29:53.469Z,0.00
2018-07-13T02:30:51.909Z,0.00
2018-07-13T02:31:52.415Z,0.00
2018-07-13T02:32:52.397Z,0.00
2018-07-13T02:33:51.894Z,0.00
2018-07-13T02:34:51.500Z,0.00
2018-07-13T02:35:51.281Z,0.00
2018-07-13T02:36:51.262Z,0.00
2018-07-13T02:37:51.319Z,0.00
2018-07-13T02:38:51.332Z,0.00
2018-07-13T02:39:51.220Z,0.00
2018-07-13T02:40:51.264Z,0.00
2018-07-13T02:41:51.159Z,0.00
2018-07-13T02:42:51.212Z,0.00
2018-07-13T02:43:51.109Z,0.00
2018-07-13T02:44:51.116Z,0.00
2018-07-13T02:45:51.115Z,0.00
2018-07-13T02:46:51.126Z,0.00
2018-07-13T02:47:50.996Z,0.00
2018-07-13T02:48:50.954Z,0.00
2018-07-13T02:49:50.912Z,0.00
2018-07-13T02:50:50.896Z,0.00
2018-07-13T02:51:50.984Z,0.00
2018-07-13T02:52:50.841Z,0.00
2018-07-13T02:53:50.828Z,4.00
2018-07-13T02:54:50.891Z,4.00
2018-07-13T02:55:50.777Z,4.00
2018-07-13T02:56:50.739Z,0.00
2018-07-13T02:57:50.723Z,4.00
2018-07-13T02:58:50.681Z,4.00
2018-07-13T02:59:50.657Z,4.00
2018-07-13T03:00:50.716Z,4.00
2018-07-13T03:01:50.622Z,4.00
2018-07-13T03:02:50.576Z,4.00
2018-07-13T03:03:50.557Z,8.00
2018-07-13T03:04:50.587Z,8.00
2018-07-13T03:05:50.499Z,12.00
2018-07-13T03:06:50.478Z,12.00
2018-07-13T03:07:50.444Z,12.00
2018-07-13T03:08:50.430Z,12.00
2018-07-13T03:09:50.394Z,16.00
2018-07-13T03:10:50.440Z,20.00
2018-07-13T03:11:50.348Z,20.00
2018-07-13T03:12:50.365Z,24.00
2018-07-13T03:13:50.383Z,28.00
2018-07-13T03:14:50.258Z,28.00
2018-07-13T03:15:50.259Z,32.00
2018-07-13T03:16:50.369Z,36.00
2018-07-13T03:17:50.204Z,40.00
2018-07-13T03:18:50.148Z,48.00
2018-07-13T03:19:50.156Z,52.00
2018-07-13T03:20:50.188Z,56.00
2018-07-13T03:21:50.102Z,64.00
2018-07-13T03:23:11.017Z,72.00
2018-07-13T03:23:51.495Z,76.00
2018-07-13T03:24:50.936Z,84.00
2018-07-13T03:25:51.017Z,92.00
2018-07-13T03:26:50.900Z,100.00
2018-07-13T03:27:50.935Z,108.00
2018-07-13T03:28:50.961Z,120.00
2018-07-13T03:29:51.301Z,128.00
2018-07-13T03:30:50.156Z,140.00
2018-07-13T03:31:49.819Z,152.00
2018-07-13T03:32:49.948Z,164.00
2018-07-13T03:33:49.860Z,180.00
2018-07-13T03:34:49.784Z,192.00
2018-07-13T03:35:49.798Z,208.00
2018-07-13T03:36:49.706Z,224.00
2018-07-13T03:37:49.713Z,240.00
2018-07-13T03:38:49.732Z,260.00
2018-07-13T03:39:49.691Z,272.00
2018-07-13T03:40:49.714Z,292.00
2018-07-13T03:41:49.595Z,312.00
2018-07-13T03:42:49.514Z,328.00
2018-07-13T03:43:49.518Z,352.00
2018-07-13T03:44:49.448Z,368.00
2018-07-13T03:47:25.923Z,420.00
2018-07-13T03:48:24.883Z,440.00
2018-07-13T03:49:25.841Z,464.00
2018-07-13T03:50:24.197Z,484.00
2018-07-13T03:51:25.697Z,504.00
2018-07-13T03:52:25.250Z,528.00
2018-07-13T03:53:25.036Z,552.00
2018-07-13T03:54:24.096Z,572.00
2018-07-13T03:55:24.382Z,596.00
2018-07-13T03:56:23.917Z,620.00
2018-07-13T03:57:23.803Z,640.00
2018-07-13T03:58:23.561Z,668.00
2018-07-13T03:59:23.579Z,688.00
2018-07-13T04:00:23.612Z,712.00
2018-07-13T04:01:23.425Z,732.00
2018-07-13T04:02:23.419Z,756.00
2018-07-13T04:03:23.448Z,784.00
2018-07-13T04:04:23.409Z,804.00
2018-07-13T04:05:23.379Z,828.00
2018-07-13T04:06:23.409Z,852.00
2018-07-13T04:07:23.280Z,876.00
2018-07-13T04:08:23.225Z,900.00
2018-07-13T04:09:23.205Z,920.00
2018-07-13T04:10:23.174Z,944.00
2018-07-13T04:11:23.159Z,964.00
2018-07-13T04:12:23.327Z,988.00
2018-07-13T04:13:23.161Z,1012.00
2018-07-13T04:14:23.198Z,1032.00
2018-07-13T04:15:23.076Z,1052.00
2018-07-13T04:16:23.158Z,1076.00
2018-07-13T04:17:23.081Z,1096.00
2018-07-13T04:18:23.070Z,1120.00
2018-07-13T04:19:23.033Z,1144.00
2018-07-13T04:20:22.910Z,1168.00
2018-07-13T04:21:22.950Z,1192.00
2018-07-13T04:22:22.963Z,1212.00
2018-07-13T04:23:22.828Z,1232.00
2018-07-13T04:24:22.810Z,1252.00
2018-07-13T04:25:22.809Z,1272.00
2018-07-13T04:26:22.779Z,1296.00
2018-07-13T04:27:22.852Z,1316.00
2018-07-13T04:28:22.771Z,1332.00
2018-07-13T04:29:22.759Z,1352.00
2018-07-13T04:30:22.711Z,1376.00
2018-07-13T04:31:22.701Z,1400.00
2018-07-13T04:32:22.752Z,1424.00
2018-07-13T04:33:22.928Z,1440.00
2018-07-13T04:34:22.693Z,1464.00
2018-07-13T04:37:20.318Z,1524.00
2018-07-13T04:38:20.595Z,1544.00
2018-07-13T04:40:12.859Z,1584.00
2018-07-13T04:41:13.081Z,1600.00
2018-07-13T04:43:12.351Z,1636.00
2018-07-13T04:44:11.439Z,1652.00
2018-07-13T04:46:22.671Z,1684.00
2018-07-13T04:47:07.665Z,1704.00
2018-07-13T04:49:09.011Z,1736.00
2018-07-13T04:50:08.559Z,1756.00
2018-07-13T04:52:03.561Z,1800.00
2018-07-13T04:53:16.335Z,1820.00
2018-07-13T04:55:07.911Z,1860.00
2018-07-13T04:56:08.392Z,1876.00
2018-07-13T04:58:05.563Z,1904.00
2018-07-13T04:59:05.035Z,1916.00
2018-07-13T05:01:03.310Z,1948.00
2018-07-13T05:02:02.857Z,1964.00
2018-07-13T05:03:57.057Z,1992.00
2018-07-13T05:04:56.849Z,2008.00
2018-07-13T05:07:04.531Z,2036.00
2018-07-13T05:08:04.467Z,2056.00
2018-07-13T05:10:13.321Z,2084.00
2018-07-13T05:11:12.203Z,2100.00
2018-07-13T05:13:10.094Z,2128.00
2018-07-13T05:14:09.054Z,2140.00
2018-07-13T05:16:13.570Z,2172.00
2018-07-13T05:17:13.045Z,2172.00
2018-07-13T05:19:25.309Z,2216.00
2018-07-13T05:20:24.194Z,2212.00
2018-07-13T05:21:24.520Z,2224.00
2018-07-13T05:22:25.279Z,2272.00
2018-07-13T05:23:24.614Z,2280.00
2018-07-13T05:24:23.941Z,2300.00
2018-07-13T05:25:23.990Z,2308.00
2018-07-13T05:26:23.751Z,2312.00
2018-07-13T05:27:23.519Z,2316.00
2018-07-13T05:28:23.489Z,2332.00
2018-07-13T05:29:23.552Z,2348.00
2018-07-13T05:30:23.518Z,2364.00
2018-07-13T05:31:23.435Z,2360.00
2018-07-13T05:32:23.443Z,2388.00
2018-07-13T05:33:23.351Z,2396.00
2018-07-13T05:34:23.406Z,2416.00
2018-07-13T05:35:23.334Z,2428.00
2018-07-13T05:36:23.276Z,2436.00
2018-07-13T05:37:23.278Z,2444.00
2018-07-13T05:38:23.313Z,2460.00
2018-07-13T05:39:23.193Z,2468.00
2018-07-13T05:40:23.170Z,2480.00
2018-07-13T05:41:23.206Z,2488.00
2018-07-13T05:42:23.205Z,2504.00
2018-07-13T05:43:23.195Z,2512.00
2018-07-13T05:44:23.224Z,2528.00
2018-07-13T05:45:23.418Z,2540.00
2018-07-13T05:46:43.896Z,2556.00
2018-07-13T05:47:24.360Z,2564.00
2018-07-13T05:48:24.315Z,2572.00
2018-07-13T05:49:23.221Z,2584.00
2018-07-13T05:50:23.032Z,2592.00
2018-07-13T05:51:23.062Z,2612.00
2018-07-13T05:52:22.857Z,2628.00
2018-07-13T05:53:22.866Z,2636.00
2018-07-13T05:54:22.820Z,2648.00
2018-07-13T05:55:22.760Z,2656.00
2018-07-13T05:56:22.746Z,2672.00
2018-07-13T05:57:22.708Z,2676.00
2018-07-13T05:58:22.690Z,2688.00
2018-07-13T05:59:22.671Z,2688.00
2018-07-13T06:00:22.658Z,2704.00
2018-07-13T06:01:22.604Z,2716.00
2018-07-13T06:02:22.596Z,2720.00
2018-07-13T06:03:22.596Z,2724.00
2018-07-13T06:04:22.529Z,2748.00
2018-07-13T06:05:22.521Z,2760.00
2018-07-13T06:06:22.543Z,2764.00
2018-07-13T06:07:22.510Z,2768.00
2018-07-13T06:08:22.936Z,2788.00
2018-07-13T06:09:22.436Z,2804.00
2018-07-13T06:10:22.395Z,2812.00
2018-07-13T06:11:22.352Z,2820.00
2018-07-13T06:12:22.371Z,2828.00
2018-07-13T06:13:22.313Z,2844.00
2018-07-13T06:14:22.284Z,2860.00
2018-07-13T06:15:22.248Z,2864.00
2018-07-13T06:16:22.326Z,2876.00
2018-07-13T06:17:22.280Z,2892.00
2018-07-13T06:18:22.264Z,2880.00
2018-07-13T06:19:22.132Z,2916.00
2018-07-13T06:20:22.115Z,2936.00
2018-07-13T06:21:22.093Z,2940.00
2018-07-13T06:22:22.078Z,2948.00
2018-07-13T06:23:22.070Z,2960.00
2018-07-13T06:24:22.111Z,2968.00
2018-07-13T06:25:22.058Z,2976.00
2018-07-13T06:26:21.957Z,2984.00
2018-07-13T06:27:22.076Z,2988.00
2018-07-13T06:28:21.903Z,2996.00
2018-07-13T06:29:21.871Z,3012.00
2018-07-13T06:30:21.970Z,3028.00
2018-07-13T06:31:21.962Z,3052.00
2018-07-13T06:32:21.818Z,3068.00
2018-07-13T06:33:21.775Z,3072.00
2018-07-13T06:34:21.773Z,3080.00
2018-07-13T06:35:21.729Z,3096.00
2018-07-13T06:36:21.694Z,3108.00
2018-07-13T06:37:21.716Z,3120.00
2018-07-13T06:38:21.649Z,3152.00
2018-07-13T06:39:21.638Z,3168.00
2018-07-13T06:40:21.639Z,3192.00
2018-07-13T06:41:21.557Z,3212.00
2018-07-13T06:42:21.531Z,3244.00
2018-07-13T06:43:21.546Z,3264.00
2018-07-13T06:44:21.484Z,3300.00
2018-07-13T06:45:21.487Z,3336.00
2018-07-13T06:46:21.460Z,3372.00
2018-07-13T06:47:21.413Z,3416.00
2018-07-13T06:48:21.385Z,3468.00
2018-07-13T06:49:21.408Z,3524.00
2018-07-13T06:50:21.363Z,3584.00
2018-07-13T06:51:21.308Z,3668.00
2018-07-13T06:52:21.294Z,3780.00
2018-07-13T06:53:21.263Z,3908.00
2018-07-13T06:54:21.233Z,4064.00
2018-07-13T06:55:21.219Z,4248.00
2018-07-13T06:56:21.232Z,4424.00
2018-07-13T06:57:21.159Z,4588.00
2018-07-13T06:58:21.146Z,4744.00
2018-07-13T06:59:21.153Z,4880.00
2018-07-13T07:00:21.081Z,4980.00
2018-07-13T07:01:21.049Z,5008.00
2018-07-13T07:02:21.090Z,5032.00
2018-07-13T07:03:20.999Z,5116.00
2018-07-13T07:04:20.979Z,5160.00
2018-07-13T07:05:20.947Z,5224.00
2018-07-13T07:06:20.922Z,5296.00
2018-07-13T07:07:20.901Z,5312.00
2018-07-13T07:08:20.984Z,5200.00
2018-07-13T07:09:20.883Z,5080.00
2018-07-13T07:10:20.940Z,4840.00
2018-07-13T07:11:20.845Z,4688.00
2018-07-13T07:12:20.823Z,4600.00
2018-07-13T07:13:20.743Z,4552.00
2018-07-13T07:14:20.755Z,4460.00
2018-07-13T07:15:21.543Z,4404.00
2018-07-13T07:16:20.671Z,4472.00
2018-07-13T07:17:20.649Z,4248.00
2018-07-13T07:18:20.619Z,4144.00
2018-07-13T07:19:20.592Z,4064.00
2018-07-13T07:20:20.581Z,3896.00
2018-07-13T07:21:20.565Z,3840.00
2018-07-13T07:22:20.519Z,3952.00
2018-07-13T07:23:20.494Z,3836.00
2018-07-13T07:24:20.545Z,3764.00
2018-07-13T07:25:20.519Z,3740.00
2018-07-13T07:26:20.582Z,3620.00
2018-07-13T07:27:20.420Z,3716.00
2018-07-13T07:28:20.451Z,3472.00
2018-07-13T07:29:20.427Z,3228.00
2018-07-13T07:30:20.324Z,3600.00
2018-07-13T07:31:20.346Z,3456.00
2018-07-13T07:32:20.348Z,3292.00
2018-07-13T07:33:20.293Z,3336.00
2018-07-13T07:34:20.432Z,3380.00
2018-07-13T07:35:20.364Z,3352.00
2018-07-13T07:36:20.175Z,3332.00
2018-07-13T07:37:20.160Z,3324.00
2018-07-13T07:38:20.184Z,3324.00
2018-07-13T07:39:20.092Z,3316.00
2018-07-13T07:40:20.092Z,3312.00
2018-07-13T07:41:20.070Z,3308.00
2018-07-13T07:42:20.026Z,3304.00
2018-07-13T07:43:19.996Z,3304.00
2018-07-13T07:44:20.008Z,3304.00
2018-07-13T07:45:19.959Z,3292.00
2018-07-13T07:46:19.925Z,3292.00
2018-07-13T07:47:19.957Z,3296.00
2018-07-13T07:48:19.878Z,3296.00
2018-07-13T07:49:19.850Z,3300.00
2018-07-13T07:50:19.848Z,3296.00
2018-07-13T07:51:38.417Z,3300.00
2018-07-13T07:53:16.648Z,3304.00
2018-07-13T07:54:15.714Z,3308.00
2018-07-13T07:55:15.675Z,3308.00
2018-07-13T07:56:15.602Z,3316.00
2018-07-13T07:57:15.608Z,3320.00
2018-07-13T07:58:15.536Z,3320.00
2018-07-13T07:59:15.508Z,3328.00
2018-07-13T08:00:15.493Z,3336.00
2018-07-13T08:01:15.463Z,3340.00
2018-07-13T08:02:15.467Z,3344.00
2018-07-13T08:03:15.442Z,3348.00
2018-07-13T08:04:15.380Z,3352.00
2018-07-13T08:05:15.381Z,3360.00
2018-07-13T08:06:15.501Z,3360.00
2018-07-13T08:07:15.748Z,3356.00
2018-07-13T08:08:15.291Z,3364.00
2018-07-13T08:09:15.301Z,3376.00
2018-07-13T08:10:15.243Z,3384.00
2018-07-13T08:11:15.210Z,3392.00
2018-07-13T08:12:15.212Z,3400.00
2018-07-13T08:13:15.166Z,3396.00
2018-07-13T08:14:15.460Z,3400.00
2018-07-13T08:15:15.109Z,3408.00
2018-07-13T08:16:15.135Z,3420.00
2018-07-13T08:17:15.059Z,3432.00
2018-07-13T08:18:15.037Z,3440.00
2018-07-13T08:19:15.124Z,3444.00
2018-07-13T08:20:14.993Z,3468.00
2018-07-13T08:21:14.955Z,3480.00
2018-07-13T08:22:15.027Z,3496.00
2018-07-13T08:23:14.945Z,3508.00
2018-07-13T08:24:14.894Z,3524.00
2018-07-13T08:25:14.884Z,3532.00
2018-07-13T08:26:14.925Z,3548.00
2018-07-13T08:27:14.838Z,3556.00
2018-07-13T08:28:14.840Z,3576.00
2018-07-13T08:29:14.821Z,3608.00
2018-07-13T08:30:14.745Z,3624.00
2018-07-13T08:31:14.746Z,3636.00
2018-07-13T08:32:14.698Z,3648.00
2018-07-13T08:33:14.728Z,3672.00
2018-07-13T08:34:14.638Z,3712.00
2018-07-13T08:35:14.621Z,3728.00
2018-07-13T08:36:14.598Z,3740.00
2018-07-13T08:37:14.576Z,3768.00
2018-07-13T08:38:14.547Z,3788.00
2018-07-13T08:39:14.539Z,3812.00
2018-07-13T08:40:14.500Z,3832.00
2018-07-13T08:41:14.472Z,3852.00
2018-07-13T08:42:14.587Z,3860.00
2018-07-13T08:43:14.573Z,3876.00
2018-07-13T08:44:14.459Z,3888.00
2018-07-13T08:45:14.379Z,3904.00
2018-07-13T08:46:14.359Z,3928.00
2018-07-13T08:47:14.319Z,3940.00
2018-07-13T08:48:14.298Z,3940.00
2018-07-13T08:49:14.281Z,3964.00
2018-07-13T08:50:14.269Z,3976.00
2018-07-13T08:51:14.269Z,3980.00
2018-07-13T08:52:14.209Z,3996.00
2018-07-13T08:53:14.257Z,4012.00
2018-07-13T08:54:14.156Z,4036.00
2018-07-13T08:55:14.143Z,4056.00
2018-07-13T08:56:14.128Z,4080.00
2018-07-13T08:57:14.082Z,4092.00
2018-07-13T08:58:14.067Z,4092.00
2018-07-13T08:59:14.036Z,4100.00
2018-07-13T09:00:14.011Z,4120.00
2018-07-13T09:01:14.081Z,4132.00
2018-07-13T09:02:13.976Z,4144.00
2018-07-13T09:03:13.975Z,4148.00
2018-07-13T09:04:13.949Z,4152.00
2018-07-13T09:05:13.888Z,4176.00
2018-07-13T09:06:13.886Z,4172.00
2018-07-13T09:07:13.845Z,4184.00
2018-07-13T09:08:13.823Z,4188.00
2018-07-13T09:09:13.804Z,4216.00
2018-07-13T09:10:13.816Z,4208.00
2018-07-13T09:11:13.750Z,4228.00
2018-07-13T09:12:13.739Z,4224.00
2018-07-13T09:13:13.746Z,4236.00
2018-07-13T09:14:13.688Z,4252.00
2018-07-13T09:15:13.649Z,4252.00
2018-07-13T09:16:13.643Z,4256.00
2018-07-13T09:17:13.611Z,4260.00
2018-07-13T09:18:13.613Z,4268.00
2018-07-13T09:19:13.554Z,4272.00
2018-07-13T09:20:13.556Z,4268.00
2018-07-13T09:21:13.613Z,4276.00
2018-07-13T09:22:13.504Z,4280.00
2018-07-13T09:23:13.479Z,4272.00
2018-07-13T09:24:13.532Z,4276.00
2018-07-13T09:25:13.427Z,4280.00
2018-07-13T09:26:13.393Z,4300.00
2018-07-13T09:27:13.448Z,4300.00
2018-07-13T09:28:13.351Z,4312.00
2018-07-13T09:29:13.360Z,4324.00
2018-07-13T09:30:13.307Z,4344.00
2018-07-13T09:31:13.302Z,4368.00
2018-07-13T09:32:13.268Z,4384.00
2018-07-13T09:33:13.267Z,4424.00
2018-07-13T09:34:13.206Z,4440.00
2018-07-13T09:35:13.196Z,4452.00
2018-07-13T09:36:13.188Z,4464.00
2018-07-13T09:37:13.197Z,4488.00
2018-07-13T09:38:13.126Z,4504.00
2018-07-13T09:39:13.091Z,4508.00
2018-07-13T09:40:13.064Z,4512.00
2018-07-13T09:41:13.062Z,4532.00
2018-07-13T09:42:13.027Z,4536.00
2018-07-13T09:43:13.018Z,4532.00
2018-07-13T09:44:12.977Z,4544.00
2018-07-13T09:45:12.958Z,4560.00
2018-07-13T09:46:12.934Z,4556.00
2018-07-13T09:47:12.935Z,4552.00
2018-07-13T09:48:12.883Z,4568.00
2018-07-13T09:49:12.865Z,4568.00
2018-07-13T09:50:12.853Z,4584.00
2018-07-13T09:51:12.814Z,4584.00
2018-07-13T09:52:12.813Z,4588.00
2018-07-13T09:53:12.772Z,4588.00
2018-07-13T09:54:12.845Z,4596.00
2018-07-13T09:55:12.732Z,4588.00
2018-07-13T09:56:12.782Z,4592.00
2018-07-13T09:57:12.681Z,4596.00
2018-07-13T09:58:12.712Z,4604.00
2018-07-13T09:59:12.644Z,4600.00
2018-07-13T10:00:12.645Z,4596.00
2018-07-13T10:01:12.613Z,4588.00
2018-07-13T10:02:12.574Z,4576.00
2018-07-13T10:03:12.545Z,4568.00
2018-07-13T10:04:12.549Z,4564.00
2018-07-13T10:05:12.503Z,4552.00
2018-07-13T10:06:12.476Z,4560.00
2018-07-13T10:07:12.457Z,4552.00
2018-07-13T10:08:12.430Z,4540.00
2018-07-13T10:09:12.441Z,4532.00
2018-07-13T10:10:12.393Z,4504.00
2018-07-13T10:11:12.384Z,4516.00
2018-07-13T10:12:12.346Z,4520.00
2018-07-13T10:13:12.317Z,4504.00
2018-07-13T10:14:12.310Z,4504.00
2018-07-13T10:15:12.308Z,4492.00
2018-07-13T10:16:12.321Z,4492.00
2018-07-13T10:17:12.237Z,4488.00
2018-07-13T10:18:12.213Z,4500.00
2018-07-13T10:19:12.216Z,4504.00
2018-07-13T10:20:12.160Z,4540.00
2018-07-13T10:21:12.177Z,4528.00
2018-07-13T10:22:12.143Z,4532.00
2018-07-13T10:23:12.138Z,4516.00
2018-07-13T10:24:12.080Z,4516.00
2018-07-13T10:25:12.061Z,4528.00
2018-07-13T10:26:12.097Z,4536.00
2018-07-13T10:27:12.017Z,4528.00
2018-07-13T10:28:11.986Z,4528.00
2018-07-13T10:29:11.996Z,4536.00
2018-07-13T10:30:11.943Z,4536.00
2018-07-13T10:31:11.913Z,4544.00
2018-07-13T10:32:11.919Z,4540.00
2018-07-13T10:33:11.882Z,4540.00
2018-07-13T10:34:11.858Z,4536.00
2018-07-13T10:35:11.846Z,4528.00
2018-07-13T10:36:11.821Z,4520.00
2018-07-13T10:37:11.778Z,4512.00
2018-07-13T10:38:11.766Z,4520.00
2018-07-13T10:39:11.751Z,4524.00
2018-07-13T10:40:11.771Z,4524.00
2018-07-13T10:41:11.696Z,4528.00
2018-07-13T10:42:11.680Z,4532.00
2018-07-13T10:43:11.678Z,4536.00
2018-07-13T10:44:11.632Z,4544.00
2018-07-13T10:45:11.616Z,4556.00
2018-07-13T10:46:11.672Z,4556.00
2018-07-13T10:47:11.581Z,4560.00
2018-07-13T10:48:11.592Z,4576.00
2018-07-13T10:49:11.574Z,4584.00
2018-07-13T10:50:11.535Z,4588.00
2018-07-13T10:51:11.509Z,4584.00
2018-07-13T10:52:11.467Z,4580.00
2018-07-13T10:53:11.450Z,4572.00
2018-07-13T10:54:11.449Z,4572.00
2018-07-13T10:55:11.395Z,4576.00
2018-07-13T10:56:11.378Z,4596.00
2018-07-13T10:57:11.394Z,4600.00
2018-07-13T10:58:11.353Z,4600.00
2018-07-13T10:59:11.308Z,4608.00
2018-07-13T11:00:11.298Z,4608.00
2018-07-13T11:01:11.272Z,4604.00
2018-07-13T11:02:11.249Z,4596.00
2018-07-13T11:03:11.225Z,4596.00
2018-07-13T11:04:11.211Z,4612.00
2018-07-13T11:05:11.247Z,4620.00
2018-07-13T11:06:11.183Z,4628.00
2018-07-13T11:07:11.135Z,4620.00
2018-07-13T11:08:11.212Z,4624.00
2018-07-13T11:09:11.094Z,4628.00
2018-07-13T11:10:11.069Z,4632.00
2018-07-13T11:11:11.117Z,4636.00
2018-07-13T11:12:11.074Z,4644.00
2018-07-13T11:13:11.010Z,4656.00
2018-07-13T11:14:10.984Z,4664.00
2018-07-13T11:15:10.964Z,4668.00
2018-07-13T11:16:11.016Z,4664.00
2018-07-13T11:17:10.928Z,4672.00
2018-07-13T11:18:10.906Z,4684.00
2018-07-13T11:19:10.900Z,4692.00
2018-07-13T11:20:10.890Z,4704.00
2018-07-13T11:21:10.838Z,4696.00
2018-07-13T11:22:10.846Z,4700.00
2018-07-13T11:23:10.908Z,4696.00
2018-07-13T11:24:10.807Z,4700.00
2018-07-13T11:25:10.767Z,4704.00
2018-07-13T11:26:10.748Z,4704.00
2018-07-13T11:27:10.717Z,4704.00
2018-07-13T11:28:10.709Z,4720.00
2018-07-13T11:29:10.672Z,4732.00
2018-07-13T11:30:10.664Z,4748.00
2018-07-13T11:31:10.705Z,4744.00
2018-07-13T11:32:10.609Z,4748.00
2018-07-13T11:33:10.611Z,4736.00
2018-07-13T11:34:10.580Z,4748.00
2018-07-13T11:35:10.549Z,4860.00
2018-07-13T11:36:10.540Z,5184.00
2018-07-13T11:37:10.727Z,5412.00
2018-07-13T11:38:10.568Z,5440.00
2018-07-13T11:39:10.477Z,5456.00
2018-07-13T11:40:10.455Z,5496.00
2018-07-13T11:41:10.457Z,5516.00
2018-07-13T11:42:10.460Z,5576.00
2018-07-13T11:43:19.070Z,5624.00
2018-07-13T11:45:11.021Z,5692.00
2018-07-13T11:46:11.206Z,5732.00
2018-07-13T11:48:14.562Z,5836.00
2018-07-13T11:49:13.903Z,5892.00
2018-07-13T11:51:18.296Z,6040.00
2018-07-13T11:52:18.234Z,6120.00
2018-07-13T11:54:21.633Z,6316.00
2018-07-13T11:55:21.627Z,6368.00
2018-07-13T11:57:26.034Z,6472.00
2018-07-13T11:58:26.054Z,6516.00
2018-07-13T12:00:31.424Z,6608.00
2018-07-13T12:01:31.949Z,6644.00
2018-07-13T12:02:31.181Z,6712.00
2018-07-13T12:03:31.347Z,6764.00
2018-07-13T12:04:31.118Z,6832.00
2018-07-13T12:05:31.096Z,6880.00
2018-07-13T12:06:31.103Z,6968.00
2018-07-13T12:07:31.225Z,7024.00
2018-07-13T12:08:31.069Z,7104.00
2018-07-13T12:09:31.034Z,7204.00
2018-07-13T12:10:31.029Z,7260.00
2018-07-13T12:11:31.024Z,7332.00
2018-07-13T12:12:31.001Z,7408.00
2018-07-13T12:13:30.972Z,7452.00
2018-07-13T12:14:31.040Z,7512.00
2018-07-13T12:15:30.936Z,7588.00
2018-07-13T12:16:30.982Z,7660.00
2018-07-13T12:17:31.023Z,7732.00
2018-07-13T12:18:30.895Z,7764.00
2018-07-13T12:19:30.922Z,7816.00
2018-07-13T12:20:30.948Z,7848.00
2018-07-13T12:21:30.860Z,7904.00
2018-07-13T12:22:30.825Z,8008.00
2018-07-13T12:23:30.856Z,8088.00
2018-07-13T12:24:30.807Z,8112.00
2018-07-13T12:25:30.821Z,8184.00
2018-07-13T12:26:30.848Z,8192.00
2018-07-13T12:27:31.533Z,8252.00
2018-07-13T12:28:30.765Z,8292.00
2018-07-13T12:29:30.835Z,8336.00
2018-07-13T12:30:30.712Z,8388.00
2018-07-13T12:31:30.781Z,8456.00
2018-07-13T12:32:30.768Z,8504.00
2018-07-13T12:33:30.701Z,8612.00
2018-07-13T12:34:30.792Z,8672.00
2018-07-13T12:35:30.706Z,8800.00
2018-07-13T12:36:30.656Z,8884.00
2018-07-13T12:37:30.620Z,8928.00
2018-07-13T12:38:30.600Z,9016.00
2018-07-13T12:39:30.634Z,9060.00
2018-07-13T12:40:30.652Z,9056.00
2018-07-13T12:41:30.572Z,9172.00
2018-07-13T12:42:41.539Z,9184.00
2018-07-13T12:43:31.882Z,9252.00
2018-07-13T12:44:30.773Z,9352.00
2018-07-13T12:45:30.641Z,9408.00
2018-07-13T12:46:30.511Z,9444.00
2018-07-13T12:47:30.481Z,9524.00
2018-07-13T12:48:30.474Z,9584.00
2018-07-13T12:49:30.478Z,9644.00
2018-07-13T12:50:48.381Z,9692.00
2018-07-13T12:52:35.190Z,9816.00
2018-07-13T12:53:34.909Z,9852.00
2018-07-13T12:55:38.092Z,10068.00
2018-07-13T12:56:37.794Z,10176.00
2018-07-13T12:58:41.668Z,10360.00
2018-07-13T12:59:41.489Z,10360.00
2018-07-13T13:01:35.880Z,10520.00
2018-07-13T13:02:35.936Z,10636.00
2018-07-13T13:04:38.873Z,10720.00
2018-07-13T13:05:39.088Z,10788.00
2018-07-13T13:07:39.552Z,10992.00
2018-07-13T13:08:39.257Z,11072.00
2018-07-13T13:10:40.869Z,11264.00
2018-07-13T13:11:40.475Z,11360.00
2018-07-13T13:13:44.069Z,11532.00
2018-07-13T13:14:44.114Z,11592.00
2018-07-13T13:16:49.338Z,11756.00
2018-07-13T13:17:49.224Z,11868.00
2018-07-13T13:19:50.763Z,12084.00
2018-07-13T13:20:50.828Z,12148.00
2018-07-13T13:22:54.039Z,12324.00